sensor_id;sensor_type;location;lat;lon;timestamp;P1;durP1;ratioP1;P2;durP2;ratioP2
66585;SDS011;53444;45.822;16.092;2022-10-31T00:01:22;42.45;;;17.48;;
66585;SDS011;53444;45.822;16.092;2022-10-31T00:03:55;36.40;;;17.70;;
66585;SDS011;53444;45.822;16.092;2022-10-31T00:06:22;41.45;;;16.75;;
66585;SDS011;53444;45.822;16.092;2022-10-31T00:08:51;37.40;;;17.13;;
66585;SDS011;53444;45.822;16.092;2022-10-31T00:11:19;33.42;;;18.70;;
66585;SDS011;53444;45.822;16.092;2022-10-31T00:13:45;42.20;;;19.65;;
66585;SDS011;53444;45.822;16.092;2022-10-31T00:16:15;37.40;;;19.45;;
66585;SDS011;53444;45.822;16.092;2022-10-31T00:18:42;35.53;;;19.15;;
66585;SDS011;53444;45.822;16.092;2022-10-31T00:21:11;37.60;;;18.25;;
66585;SDS011;53444;45.822;16.092;2022-10-31T00:23:37;36.72;;;18.42;;
66585;SDS011;53444;45.822;16.092;2022-10-31T00:26:04;29.63;;;17.98;;
66585;SDS011;53444;45.822;16.092;2022-10-31T00:28:32;32.30;;;17.52;;
66585;SDS011;53444;45.822;16.092;2022-10-31T00:30:59;41.22;;;17.85;;
66585;SDS011;53444;45.822;16.092;2022-10-31T00:33:26;31.30;;;16.77;;
66585;SDS011;53444;45.822;16.092;2022-10-31T00:35:53;34.05;;;16.02;;
66585;SDS011;53444;45.822;16.092;2022-10-31T00:38:21;34.65;;;16.50;;
66585;SDS011;53444;45.822;16.092;2022-10-31T00:40:48;30.42;;;14.73;;
66585;SDS011;53444;45.822;16.092;2022-10-31T00:43:15;30.58;;;15.77;;
66585;SDS011;53444;45.822;16.092;2022-10-31T00:45:42;32.85;;;15.15;;
66585;SDS011;53444;45.822;16.092;2022-10-31T00:48:09;30.25;;;16.67;;
66585;SDS011;53444;45.822;16.092;2022-10-31T00:50:36;27.45;;;16.75;;
66585;SDS011;53444;45.822;16.092;2022-10-31T00:53:03;28.65;;;16.38;;
66585;SDS011;53444;45.822;16.092;2022-10-31T00:55:32;28.50;;;15.07;;
66585;SDS011;53444;45.822;16.092;2022-10-31T00:57:59;28.58;;;15.27;;
66585;SDS011;53444;45.822;16.092;2022-10-31T01:00:26;28.17;;;15.45;;
66585;SDS011;53444;45.822;16.092;2022-10-31T01:02:53;30.92;;;14.73;;
66585;SDS011;53444;45.822;16.092;2022-10-31T01:05:19;33.38;;;16.63;;
66585;SDS011;53444;45.822;16.092;2022-10-31T01:07:46;29.15;;;15.77;;
66585;SDS011;53444;45.822;16.092;2022-10-31T01:10:13;29.42;;;15.35;;
66585;SDS011;53444;45.822;16.092;2022-10-31T01:12:42;25.90;;;15.77;;
66585;SDS011;53444;45.822;16.092;2022-10-31T01:15:10;28.88;;;15.07;;
66585;SDS011;53444;45.822;16.092;2022-10-31T01:17:38;34.33;;;16.67;;
66585;SDS011;53444;45.822;16.092;2022-10-31T01:20:07;31.65;;;16.30;;
66585;SDS011;53444;45.822;16.092;2022-10-31T01:22:35;28.83;;;15.93;;
66585;SDS011;53444;45.822;16.092;2022-10-31T01:25:02;29.50;;;15.82;;
66585;SDS011;53444;45.822;16.092;2022-10-31T01:27:29;31.20;;;16.45;;
66585;SDS011;53444;45.822;16.092;2022-10-31T01:29:58;30.80;;;16.25;;
66585;SDS011;53444;45.822;16.092;2022-10-31T01:32:25;25.77;;;15.57;;
66585;SDS011;53444;45.822;16.092;2022-10-31T01:34:53;33.78;;;16.60;;
66585;SDS011;53444;45.822;16.092;2022-10-31T01:37:20;29.00;;;14.20;;
66585;SDS011;53444;45.822;16.092;2022-10-31T01:39:47;26.40;;;14.80;;
66585;SDS011;53444;45.822;16.092;2022-10-31T01:42:15;34.13;;;15.55;;
66585;SDS011;53444;45.822;16.092;2022-10-31T01:44:52;28.88;;;15.55;;
66585;SDS011;53444;45.822;16.092;2022-10-31T01:47:24;27.10;;;14.52;;
66585;SDS011;53444;45.822;16.092;2022-10-31T01:49:57;27.27;;;15.43;;
66585;SDS011;53444;45.822;16.092;2022-10-31T01:52:29;24.95;;;14.35;;
66585;SDS011;53444;45.822;16.092;2022-10-31T01:54:59;28.13;;;15.10;;
66585;SDS011;53444;45.822;16.092;2022-10-31T01:57:30;27.35;;;14.88;;
66585;SDS011;53444;45.822;16.092;2022-10-31T01:59:59;27.40;;;14.38;;
66585;SDS011;53444;45.822;16.092;2022-10-31T02:02:29;29.85;;;14.95;;
66585;SDS011;53444;45.822;16.092;2022-10-31T02:04:58;22.55;;;13.68;;
66585;SDS011;53444;45.822;16.092;2022-10-31T02:07:28;25.70;;;14.32;;
66585;SDS011;53444;45.822;16.092;2022-10-31T02:10:00;26.02;;;13.65;;
66585;SDS011;53444;45.822;16.092;2022-10-31T02:12:28;30.17;;;15.05;;
66585;SDS011;53444;45.822;16.092;2022-10-31T02:14:56;29.60;;;15.23;;
66585;SDS011;53444;45.822;16.092;2022-10-31T02:17:23;29.95;;;14.93;;
66585;SDS011;53444;45.822;16.092;2022-10-31T02:19:51;29.55;;;14.70;;
66585;SDS011;53444;45.822;16.092;2022-10-31T02:22:23;31.98;;;15.20;;
66585;SDS011;53444;45.822;16.092;2022-10-31T02:24:58;27.92;;;14.60;;
66585;SDS011;53444;45.822;16.092;2022-10-31T02:27:44;27.30;;;14.85;;
66585;SDS011;53444;45.822;16.092;2022-10-31T02:30:23;30.48;;;16.20;;
66585;SDS011;53444;45.822;16.092;2022-10-31T02:32:55;34.70;;;15.70;;
66585;SDS011;53444;45.822;16.092;2022-10-31T02:35:40;30.58;;;16.00;;
66585;SDS011;53444;45.822;16.092;2022-10-31T02:38:18;30.02;;;15.30;;
66585;SDS011;53444;45.822;16.092;2022-10-31T02:40:52;33.97;;;15.95;;
66585;SDS011;53444;45.822;16.092;2022-10-31T02:43:27;49.10;;;16.52;;
66585;SDS011;53444;45.822;16.092;2022-10-31T02:46:02;33.63;;;15.82;;
66585;SDS011;53444;45.822;16.092;2022-10-31T02:48:36;28.55;;;16.42;;
66585;SDS011;53444;45.822;16.092;2022-10-31T02:51:06;31.15;;;16.42;;
66585;SDS011;53444;45.822;16.092;2022-10-31T02:53:36;36.03;;;16.88;;
66585;SDS011;53444;45.822;16.092;2022-10-31T02:56:04;31.73;;;15.93;;
66585;SDS011;53444;45.822;16.092;2022-10-31T02:58:35;37.00;;;15.43;;
66585;SDS011;53444;45.822;16.092;2022-10-31T03:01:21;32.88;;;15.93;;
66585;SDS011;53444;45.822;16.092;2022-10-31T03:04:19;28.70;;;14.13;;
66585;SDS011;53444;45.822;16.092;2022-10-31T03:06:56;33.83;;;15.10;;
66585;SDS011;53444;45.822;16.092;2022-10-31T03:09:32;30.50;;;15.40;;
66585;SDS011;53444;45.822;16.092;2022-10-31T03:12:07;28.17;;;14.55;;
66585;SDS011;53444;45.822;16.092;2022-10-31T03:14:39;32.55;;;14.38;;
66585;SDS011;53444;45.822;16.092;2022-10-31T03:17:10;26.98;;;15.70;;
66585;SDS011;53444;45.822;16.092;2022-10-31T03:19:47;29.88;;;14.23;;
66585;SDS011;53444;45.822;16.092;2022-10-31T03:22:19;21.70;;;13.07;;
66585;SDS011;53444;45.822;16.092;2022-10-31T03:24:48;23.70;;;13.10;;
66585;SDS011;53444;45.822;16.092;2022-10-31T03:27:18;22.80;;;11.80;;
66585;SDS011;53444;45.822;16.092;2022-10-31T03:29:49;21.00;;;10.65;;
66585;SDS011;53444;45.822;16.092;2022-10-31T03:32:19;18.65;;;9.35;;
66585;SDS011;53444;45.822;16.092;2022-10-31T03:34:50;18.63;;;9.73;;
66585;SDS011;53444;45.822;16.092;2022-10-31T03:37:21;19.10;;;10.95;;
66585;SDS011;53444;45.822;16.092;2022-10-31T03:39:50;31.75;;;9.77;;
66585;SDS011;53444;45.822;16.092;2022-10-31T03:42:20;28.27;;;9.48;;
66585;SDS011;53444;45.822;16.092;2022-10-31T03:44:51;36.97;;;10.55;;
66585;SDS011;53444;45.822;16.092;2022-10-31T03:47:21;28.88;;;11.30;;
66585;SDS011;53444;45.822;16.092;2022-10-31T03:49:48;22.67;;;11.48;;
66585;SDS011;53444;45.822;16.092;2022-10-31T03:52:19;33.00;;;10.95;;
66585;SDS011;53444;45.822;16.092;2022-10-31T03:54:52;28.63;;;10.82;;
66585;SDS011;53444;45.822;16.092;2022-10-31T03:57:24;31.45;;;10.63;;
66585;SDS011;53444;45.822;16.092;2022-10-31T03:59:55;26.15;;;11.52;;
66585;SDS011;53444;45.822;16.092;2022-10-31T04:02:26;19.92;;;11.02;;
66585;SDS011;53444;45.822;16.092;2022-10-31T04:04:57;32.78;;;11.48;;
66585;SDS011;53444;45.822;16.092;2022-10-31T04:07:25;22.73;;;11.75;;
66585;SDS011;53444;45.822;16.092;2022-10-31T04:09:55;21.15;;;11.07;;
66585;SDS011;53444;45.822;16.092;2022-10-31T04:12:23;21.65;;;10.75;;
66585;SDS011;53444;45.822;16.092;2022-10-31T04:14:51;23.90;;;11.25;;
66585;SDS011;53444;45.822;16.092;2022-10-31T04:17:19;23.75;;;11.20;;
66585;SDS011;53444;45.822;16.092;2022-10-31T04:19:48;21.13;;;11.00;;
66585;SDS011;53444;45.822;16.092;2022-10-31T04:22:16;25.67;;;10.43;;
66585;SDS011;53444;45.822;16.092;2022-10-31T04:24:43;29.50;;;9.98;;
66585;SDS011;53444;45.822;16.092;2022-10-31T04:27:10;16.05;;;10.15;;
66585;SDS011;53444;45.822;16.092;2022-10-31T04:29:37;15.65;;;9.85;;
66585;SDS011;53444;45.822;16.092;2022-10-31T04:32:04;20.90;;;10.48;;
66585;SDS011;53444;45.822;16.092;2022-10-31T04:34:30;17.15;;;10.45;;
66585;SDS011;53444;45.822;16.092;2022-10-31T04:36:57;29.65;;;10.73;;
66585;SDS011;53444;45.822;16.092;2022-10-31T04:39:25;20.30;;;10.30;;
66585;SDS011;53444;45.822;16.092;2022-10-31T04:41:52;21.08;;;10.82;;
66585;SDS011;53444;45.822;16.092;2022-10-31T04:44:18;23.48;;;10.00;;
66585;SDS011;53444;45.822;16.092;2022-10-31T04:46:45;25.85;;;10.57;;
66585;SDS011;53444;45.822;16.092;2022-10-31T04:49:12;22.00;;;9.65;;
66585;SDS011;53444;45.822;16.092;2022-10-31T04:51:38;17.38;;;9.63;;
66585;SDS011;53444;45.822;16.092;2022-10-31T04:54:05;26.08;;;9.75;;
66585;SDS011;53444;45.822;16.092;2022-10-31T04:56:33;25.35;;;9.23;;
66585;SDS011;53444;45.822;16.092;2022-10-31T04:59:00;16.70;;;7.88;;
66585;SDS011;53444;45.822;16.092;2022-10-31T05:01:27;17.13;;;9.05;;
66585;SDS011;53444;45.822;16.092;2022-10-31T05:03:53;24.90;;;8.82;;
66585;SDS011;53444;45.822;16.092;2022-10-31T05:06:20;32.13;;;9.52;;
66585;SDS011;53444;45.822;16.092;2022-10-31T05:08:46;22.13;;;9.32;;
66585;SDS011;53444;45.822;16.092;2022-10-31T05:11:13;15.38;;;8.68;;
66585;SDS011;53444;45.822;16.092;2022-10-31T05:13:41;20.65;;;8.98;;
66585;SDS011;53444;45.822;16.092;2022-10-31T05:16:08;22.40;;;9.35;;
66585;SDS011;53444;45.822;16.092;2022-10-31T05:18:34;15.50;;;9.07;;
66585;SDS011;53444;45.822;16.092;2022-10-31T05:21:01;28.60;;;9.50;;
66585;SDS011;53444;45.822;16.092;2022-10-31T05:23:28;23.25;;;10.05;;
66585;SDS011;53444;45.822;16.092;2022-10-31T05:25:54;17.23;;;9.80;;
66585;SDS011;53444;45.822;16.092;2022-10-31T05:28:21;18.20;;;10.68;;
66585;SDS011;53444;45.822;16.092;2022-10-31T05:30:49;28.77;;;10.30;;
66585;SDS011;53444;45.822;16.092;2022-10-31T05:33:15;19.55;;;10.52;;
66585;SDS011;53444;45.822;16.092;2022-10-31T05:35:42;16.50;;;9.60;;
66585;SDS011;53444;45.822;16.092;2022-10-31T05:38:09;14.93;;;9.25;;
66585;SDS011;53444;45.822;16.092;2022-10-31T05:40:35;18.05;;;9.85;;
66585;SDS011;53444;45.822;16.092;2022-10-31T05:43:02;20.45;;;10.25;;
66585;SDS011;53444;45.822;16.092;2022-10-31T05:45:29;18.20;;;9.73;;
66585;SDS011;53444;45.822;16.092;2022-10-31T05:47:57;17.30;;;9.70;;
66585;SDS011;53444;45.822;16.092;2022-10-31T05:50:25;23.00;;;9.55;;
66585;SDS011;53444;45.822;16.092;2022-10-31T05:52:54;16.52;;;9.95;;
66585;SDS011;53444;45.822;16.092;2022-10-31T05:55:21;17.00;;;9.68;;
66585;SDS011;53444;45.822;16.092;2022-10-31T05:57:48;17.23;;;10.32;;
66585;SDS011;53444;45.822;16.092;2022-10-31T06:00:15;20.30;;;9.98;;
66585;SDS011;53444;45.822;16.092;2022-10-31T06:02:43;20.00;;;9.10;;
66585;SDS011;53444;45.822;16.092;2022-10-31T06:05:11;22.02;;;8.40;;
66585;SDS011;53444;45.822;16.092;2022-10-31T06:07:38;17.10;;;8.60;;
66585;SDS011;53444;45.822;16.092;2022-10-31T06:10:05;23.48;;;9.30;;
66585;SDS011;53444;45.822;16.092;2022-10-31T06:12:33;18.73;;;9.02;;
66585;SDS011;53444;45.822;16.092;2022-10-31T06:15:03;15.43;;;8.68;;
66585;SDS011;53444;45.822;16.092;2022-10-31T06:17:30;16.25;;;9.32;;
66585;SDS011;53444;45.822;16.092;2022-10-31T06:19:56;16.50;;;9.00;;
66585;SDS011;53444;45.822;16.092;2022-10-31T06:22:25;23.17;;;8.90;;
66585;SDS011;53444;45.822;16.092;2022-10-31T06:24:51;16.13;;;8.90;;
66585;SDS011;53444;45.822;16.092;2022-10-31T06:27:18;18.27;;;8.57;;
66585;SDS011;53444;45.822;16.092;2022-10-31T06:29:45;13.52;;;8.43;;
66585;SDS011;53444;45.822;16.092;2022-10-31T06:32:13;32.53;;;9.00;;
66585;SDS011;53444;45.822;16.092;2022-10-31T06:34:40;14.93;;;7.70;;
66585;SDS011;53444;45.822;16.092;2022-10-31T06:37:08;20.40;;;8.50;;
66585;SDS011;53444;45.822;16.092;2022-10-31T06:39:37;14.77;;;8.55;;
66585;SDS011;53444;45.822;16.092;2022-10-31T06:42:08;18.23;;;8.65;;
66585;SDS011;53444;45.822;16.092;2022-10-31T06:44:37;14.82;;;8.05;;
66585;SDS011;53444;45.822;16.092;2022-10-31T06:47:04;17.23;;;7.50;;
66585;SDS011;53444;45.822;16.092;2022-10-31T06:49:31;21.25;;;6.53;;
66585;SDS011;53444;45.822;16.092;2022-10-31T06:51:58;18.35;;;8.82;;
66585;SDS011;53444;45.822;16.092;2022-10-31T06:54:28;18.15;;;8.88;;
66585;SDS011;53444;45.822;16.092;2022-10-31T06:56:59;30.98;;;8.73;;
66585;SDS011;53444;45.822;16.092;2022-10-31T06:59:26;19.95;;;8.63;;
66585;SDS011;53444;45.822;16.092;2022-10-31T07:01:53;25.10;;;8.57;;
66585;SDS011;53444;45.822;16.092;2022-10-31T07:04:19;23.08;;;9.63;;
66585;SDS011;53444;45.822;16.092;2022-10-31T07:06:47;16.58;;;9.70;;
66585;SDS011;53444;45.822;16.092;2022-10-31T07:09:16;21.73;;;8.98;;
66585;SDS011;53444;45.822;16.092;2022-10-31T07:11:46;20.20;;;8.63;;
66585;SDS011;53444;45.822;16.092;2022-10-31T07:14:16;16.40;;;8.57;;
66585;SDS011;53444;45.822;16.092;2022-10-31T07:16:43;15.40;;;8.60;;
66585;SDS011;53444;45.822;16.092;2022-10-31T07:19:14;16.08;;;8.18;;
66585;SDS011;53444;45.822;16.092;2022-10-31T07:21:41;13.48;;;8.13;;
66585;SDS011;53444;45.822;16.092;2022-10-31T07:24:09;15.93;;;8.27;;
66585;SDS011;53444;45.822;16.092;2022-10-31T07:26:36;14.48;;;8.15;;
66585;SDS011;53444;45.822;16.092;2022-10-31T07:29:03;15.07;;;8.77;;
66585;SDS011;53444;45.822;16.092;2022-10-31T07:31:31;14.80;;;8.65;;
66585;SDS011;53444;45.822;16.092;2022-10-31T07:33:58;16.58;;;8.52;;
66585;SDS011;53444;45.822;16.092;2022-10-31T07:36:34;18.83;;;8.20;;
66585;SDS011;53444;45.822;16.092;2022-10-31T07:39:01;14.75;;;8.48;;
66585;SDS011;53444;45.822;16.092;2022-10-31T07:41:32;13.95;;;7.53;;
66585;SDS011;53444;45.822;16.092;2022-10-31T07:43:59;22.95;;;8.20;;
66585;SDS011;53444;45.822;16.092;2022-10-31T07:46:26;19.10;;;8.10;;
66585;SDS011;53444;45.822;16.092;2022-10-31T07:49:01;15.68;;;8.98;;
66585;SDS011;53444;45.822;16.092;2022-10-31T07:51:28;16.80;;;9.68;;
66585;SDS011;53444;45.822;16.092;2022-10-31T07:53:55;15.05;;;8.90;;
66585;SDS011;53444;45.822;16.092;2022-10-31T07:56:22;26.27;;;9.63;;
66585;SDS011;53444;45.822;16.092;2022-10-31T07:58:50;19.38;;;10.15;;
66585;SDS011;53444;45.822;16.092;2022-10-31T08:01:24;18.80;;;8.40;;
66585;SDS011;53444;45.822;16.092;2022-10-31T08:03:54;18.60;;;9.20;;
66585;SDS011;53444;45.822;16.092;2022-10-31T08:06:23;16.40;;;9.50;;
66585;SDS011;53444;45.822;16.092;2022-10-31T08:08:54;25.85;;;10.32;;
66585;SDS011;53444;45.822;16.092;2022-10-31T08:11:20;19.55;;;10.35;;
66585;SDS011;53444;45.822;16.092;2022-10-31T08:13:47;17.55;;;9.30;;
66585;SDS011;53444;45.822;16.092;2022-10-31T08:16:14;14.25;;;8.77;;
66585;SDS011;53444;45.822;16.092;2022-10-31T08:18:40;16.05;;;8.52;;
66585;SDS011;53444;45.822;16.092;2022-10-31T08:21:07;20.70;;;9.25;;
66585;SDS011;53444;45.822;16.092;2022-10-31T08:23:35;14.27;;;8.55;;
66585;SDS011;53444;45.822;16.092;2022-10-31T08:26:02;16.02;;;9.32;;
66585;SDS011;53444;45.822;16.092;2022-10-31T08:28:31;19.23;;;9.35;;
66585;SDS011;53444;45.822;16.092;2022-10-31T08:30:57;17.73;;;9.80;;
66585;SDS011;53444;45.822;16.092;2022-10-31T08:33:25;17.10;;;10.25;;
66585;SDS011;53444;45.822;16.092;2022-10-31T08:35:51;15.93;;;9.98;;
66585;SDS011;53444;45.822;16.092;2022-10-31T08:38:18;17.13;;;9.35;;
66585;SDS011;53444;45.822;16.092;2022-10-31T08:40:47;16.70;;;9.65;;
66585;SDS011;53444;45.822;16.092;2022-10-31T08:43:15;19.08;;;9.93;;
66585;SDS011;53444;45.822;16.092;2022-10-31T08:45:43;16.55;;;9.35;;
66585;SDS011;53444;45.822;16.092;2022-10-31T08:48:13;16.50;;;9.65;;
66585;SDS011;53444;45.822;16.092;2022-10-31T08:50:42;17.95;;;10.32;;
66585;SDS011;53444;45.822;16.092;2022-10-31T08:53:11;20.95;;;11.18;;
66585;SDS011;53444;45.822;16.092;2022-10-31T08:55:39;17.33;;;9.82;;
66585;SDS011;53444;45.822;16.092;2022-10-31T08:58:10;19.15;;;10.57;;
66585;SDS011;53444;45.822;16.092;2022-10-31T09:00:38;19.10;;;10.45;;
66585;SDS011;53444;45.822;16.092;2022-10-31T09:03:05;17.77;;;10.43;;
66585;SDS011;53444;45.822;16.092;2022-10-31T09:05:35;18.50;;;11.18;;
66585;SDS011;53444;45.822;16.092;2022-10-31T09:08:03;16.80;;;9.52;;
66585;SDS011;53444;45.822;16.092;2022-10-31T09:10:31;21.77;;;11.50;;
66585;SDS011;53444;45.822;16.092;2022-10-31T09:13:00;18.63;;;10.40;;
66585;SDS011;53444;45.822;16.092;2022-10-31T09:15:33;20.38;;;10.65;;
66585;SDS011;53444;45.822;16.092;2022-10-31T09:18:00;21.05;;;10.77;;
66585;SDS011;53444;45.822;16.092;2022-10-31T09:20:27;20.73;;;11.13;;
66585;SDS011;53444;45.822;16.092;2022-10-31T09:22:57;20.50;;;10.98;;
66585;SDS011;53444;45.822;16.092;2022-10-31T09:25:24;18.77;;;11.00;;
66585;SDS011;53444;45.822;16.092;2022-10-31T09:27:55;20.40;;;11.23;;
66585;SDS011;53444;45.822;16.092;2022-10-31T09:30:22;17.90;;;11.00;;
66585;SDS011;53444;45.822;16.092;2022-10-31T09:32:57;22.67;;;12.75;;
66585;SDS011;53444;45.822;16.092;2022-10-31T09:35:27;19.13;;;10.70;;
66585;SDS011;53444;45.822;16.092;2022-10-31T09:37:54;19.77;;;12.20;;
66585;SDS011;53444;45.822;16.092;2022-10-31T09:40:22;22.58;;;11.77;;
66585;SDS011;53444;45.822;16.092;2022-10-31T09:42:55;20.02;;;11.77;;
66585;SDS011;53444;45.822;16.092;2022-10-31T09:45:31;18.13;;;10.82;;
66585;SDS011;53444;45.822;16.092;2022-10-31T09:48:13;20.45;;;11.55;;
66585;SDS011;53444;45.822;16.092;2022-10-31T09:50:52;20.85;;;11.90;;
66585;SDS011;53444;45.822;16.092;2022-10-31T09:53:24;21.83;;;12.18;;
66585;SDS011;53444;45.822;16.092;2022-10-31T09:55:56;20.67;;;12.30;;
66585;SDS011;53444;45.822;16.092;2022-10-31T09:58:24;22.98;;;13.18;;
66585;SDS011;53444;45.822;16.092;2022-10-31T10:00:54;22.33;;;12.50;;
66585;SDS011;53444;45.822;16.092;2022-10-31T10:03:29;21.70;;;13.43;;
66585;SDS011;53444;45.822;16.092;2022-10-31T10:06:04;23.73;;;13.70;;
66585;SDS011;53444;45.822;16.092;2022-10-31T10:08:43;25.08;;;12.75;;
66585;SDS011;53444;45.822;16.092;2022-10-31T10:11:16;23.17;;;13.85;;
66585;SDS011;53444;45.822;16.092;2022-10-31T10:13:55;23.83;;;13.57;;
66585;SDS011;53444;45.822;16.092;2022-10-31T10:16:38;19.23;;;11.65;;
66585;SDS011;53444;45.822;16.092;2022-10-31T10:19:23;26.27;;;13.18;;
66585;SDS011;53444;45.822;16.092;2022-10-31T10:21:57;21.88;;;12.85;;
66585;SDS011;53444;45.822;16.092;2022-10-31T10:24:35;23.05;;;13.50;;
66585;SDS011;53444;45.822;16.092;2022-10-31T10:27:15;24.63;;;12.95;;
66585;SDS011;53444;45.822;16.092;2022-10-31T10:29:52;22.90;;;13.35;;
66585;SDS011;53444;45.822;16.092;2022-10-31T10:32:27;26.17;;;13.75;;
66585;SDS011;53444;45.822;16.092;2022-10-31T10:34:57;22.08;;;12.95;;
66585;SDS011;53444;45.822;16.092;2022-10-31T10:37:35;26.27;;;13.27;;
66585;SDS011;53444;45.822;16.092;2022-10-31T10:40:06;21.65;;;12.95;;
66585;SDS011;53444;45.822;16.092;2022-10-31T10:42:39;24.65;;;13.80;;
66585;SDS011;53444;45.822;16.092;2022-10-31T10:45:35;22.63;;;13.23;;
66585;SDS011;53444;45.822;16.092;2022-10-31T10:48:27;26.90;;;14.65;;
66585;SDS011;53444;45.822;16.092;2022-10-31T10:51:02;28.20;;;15.45;;
66585;SDS011;53444;45.822;16.092;2022-10-31T10:53:43;31.85;;;16.85;;
66585;SDS011;53444;45.822;16.092;2022-10-31T10:56:32;26.95;;;15.77;;
66585;SDS011;53444;45.822;16.092;2022-10-31T10:59:08;28.80;;;15.80;;
66585;SDS011;53444;45.822;16.092;2022-10-31T11:01:38;27.80;;;14.90;;
66585;SDS011;53444;45.822;16.092;2022-10-31T11:04:08;26.67;;;15.07;;
66585;SDS011;53444;45.822;16.092;2022-10-31T11:06:58;26.90;;;14.75;;
66585;SDS011;53444;45.822;16.092;2022-10-31T11:09:29;24.38;;;14.77;;
66585;SDS011;53444;45.822;16.092;2022-10-31T11:11:57;28.40;;;14.60;;
66585;SDS011;53444;45.822;16.092;2022-10-31T11:14:25;25.83;;;15.40;;
66585;SDS011;53444;45.822;16.092;2022-10-31T11:16:54;27.45;;;16.10;;
66585;SDS011;53444;45.822;16.092;2022-10-31T11:19:33;29.02;;;16.58;;
66585;SDS011;53444;45.822;16.092;2022-10-31T11:22:06;32.97;;;17.33;;
66585;SDS011;53444;45.822;16.092;2022-10-31T11:24:38;31.27;;;17.70;;
66585;SDS011;53444;45.822;16.092;2022-10-31T11:27:11;28.40;;;16.98;;
66585;SDS011;53444;45.822;16.092;2022-10-31T11:29:41;30.40;;;16.60;;
66585;SDS011;53444;45.822;16.092;2022-10-31T11:32:14;32.28;;;17.58;;
66585;SDS011;53444;45.822;16.092;2022-10-31T11:34:45;32.28;;;18.00;;
66585;SDS011;53444;45.822;16.092;2022-10-31T11:37:16;30.48;;;17.08;;
66585;SDS011;53444;45.822;16.092;2022-10-31T11:39:46;30.52;;;18.17;;
66585;SDS011;53444;45.822;16.092;2022-10-31T11:42:18;31.08;;;17.80;;
66585;SDS011;53444;45.822;16.092;2022-10-31T11:44:47;28.58;;;15.98;;
66585;SDS011;53444;45.822;16.092;2022-10-31T11:47:15;28.30;;;15.63;;
66585;SDS011;53444;45.822;16.092;2022-10-31T11:49:44;29.50;;;16.20;;
66585;SDS011;53444;45.822;16.092;2022-10-31T11:52:16;31.75;;;16.58;;
66585;SDS011;53444;45.822;16.092;2022-10-31T11:54:46;29.30;;;16.83;;
66585;SDS011;53444;45.822;16.092;2022-10-31T11:57:22;30.05;;;16.55;;
66585;SDS011;53444;45.822;16.092;2022-10-31T11:59:51;31.00;;;16.25;;
66585;SDS011;53444;45.822;16.092;2022-10-31T12:02:20;33.58;;;18.63;;
66585;SDS011;53444;45.822;16.092;2022-10-31T12:04:48;32.22;;;17.50;;
66585;SDS011;53444;45.822;16.092;2022-10-31T12:07:20;30.23;;;17.08;;
66585;SDS011;53444;45.822;16.092;2022-10-31T12:09:48;34.13;;;16.17;;
66585;SDS011;53444;45.822;16.092;2022-10-31T12:12:20;28.55;;;16.17;;
66585;SDS011;53444;45.822;16.092;2022-10-31T12:15:11;26.25;;;15.38;;
66585;SDS011;53444;45.822;16.092;2022-10-31T12:17:55;25.02;;;14.75;;
66585;SDS011;53444;45.822;16.092;2022-10-31T12:20:32;25.75;;;14.95;;
66585;SDS011;53444;45.822;16.092;2022-10-31T12:23:09;25.67;;;14.77;;
66585;SDS011;53444;45.822;16.092;2022-10-31T12:25:44;23.42;;;13.32;;
66585;SDS011;53444;45.822;16.092;2022-10-31T12:28:27;23.23;;;13.02;;
66585;SDS011;53444;45.822;16.092;2022-10-31T12:31:09;20.77;;;13.10;;
66585;SDS011;53444;45.822;16.092;2022-10-31T12:33:47;18.88;;;11.75;;
66585;SDS011;53444;45.822;16.092;2022-10-31T12:36:29;25.30;;;14.57;;
66585;SDS011;53444;45.822;16.092;2022-10-31T12:39:14;21.60;;;14.35;;
66585;SDS011;53444;45.822;16.092;2022-10-31T12:42:02;24.52;;;14.27;;
66585;SDS011;53444;45.822;16.092;2022-10-31T12:44:40;24.60;;;13.80;;
66585;SDS011;53444;45.822;16.092;2022-10-31T12:47:22;25.30;;;14.85;;
66585;SDS011;53444;45.822;16.092;2022-10-31T12:50:11;24.58;;;14.80;;
66585;SDS011;53444;45.822;16.092;2022-10-31T12:52:49;24.40;;;14.98;;
66585;SDS011;53444;45.822;16.092;2022-10-31T12:55:40;27.38;;;15.93;;
66585;SDS011;53444;45.822;16.092;2022-10-31T12:58:14;30.07;;;16.27;;
66585;SDS011;53444;45.822;16.092;2022-10-31T13:00:47;26.85;;;16.25;;
66585;SDS011;53444;45.822;16.092;2022-10-31T13:03:23;28.92;;;16.63;;
66585;SDS011;53444;45.822;16.092;2022-10-31T13:05:56;31.88;;;16.58;;
66585;SDS011;53444;45.822;16.092;2022-10-31T13:08:29;29.58;;;16.30;;
66585;SDS011;53444;45.822;16.092;2022-10-31T13:11:05;33.73;;;17.30;;
66585;SDS011;53444;45.822;16.092;2022-10-31T13:13:37;30.48;;;17.75;;
66585;SDS011;53444;45.822;16.092;2022-10-31T13:16:11;29.33;;;17.48;;
66585;SDS011;53444;45.822;16.092;2022-10-31T13:18:42;30.05;;;17.10;;
66585;SDS011;53444;45.822;16.092;2022-10-31T13:21:16;34.78;;;18.02;;
66585;SDS011;53444;45.822;16.092;2022-10-31T13:23:47;30.20;;;17.93;;
66585;SDS011;53444;45.822;16.092;2022-10-31T13:26:19;31.67;;;18.42;;
66585;SDS011;53444;45.822;16.092;2022-10-31T13:28:52;30.63;;;17.75;;
66585;SDS011;53444;45.822;16.092;2022-10-31T13:31:25;32.65;;;17.92;;
66585;SDS011;53444;45.822;16.092;2022-10-31T13:33:53;32.78;;;19.25;;
66585;SDS011;53444;45.822;16.092;2022-10-31T13:36:25;31.23;;;18.70;;
66585;SDS011;53444;45.822;16.092;2022-10-31T13:38:59;34.20;;;18.58;;
66585;SDS011;53444;45.822;16.092;2022-10-31T13:41:35;36.15;;;20.55;;
66585;SDS011;53444;45.822;16.092;2022-10-31T13:44:11;32.78;;;17.90;;
66585;SDS011;53444;45.822;16.092;2022-10-31T13:46:42;30.75;;;18.30;;
66585;SDS011;53444;45.822;16.092;2022-10-31T13:52:14;30.35;;;17.67;;
66585;SDS011;53444;45.822;16.092;2022-10-31T13:54:42;30.63;;;17.70;;
66585;SDS011;53444;45.822;16.092;2022-10-31T13:57:16;28.90;;;18.05;;
66585;SDS011;53444;45.822;16.092;2022-10-31T13:59:49;27.75;;;16.90;;
66585;SDS011;53444;45.822;16.092;2022-10-31T14:02:19;26.30;;;16.50;;
66585;SDS011;53444;45.822;16.092;2022-10-31T14:04:51;27.67;;;17.35;;
66585;SDS011;53444;45.822;16.092;2022-10-31T14:07:21;27.05;;;16.25;;
66585;SDS011;53444;45.822;16.092;2022-10-31T14:09:52;26.50;;;16.50;;
66585;SDS011;53444;45.822;16.092;2022-10-31T14:12:24;27.05;;;16.05;;
66585;SDS011;53444;45.822;16.092;2022-10-31T14:14:55;27.17;;;16.00;;
66585;SDS011;53444;45.822;16.092;2022-10-31T14:17:26;27.27;;;15.65;;
66585;SDS011;53444;45.822;16.092;2022-10-31T14:20:02;30.70;;;16.40;;
66585;SDS011;53444;45.822;16.092;2022-10-31T14:22:50;30.27;;;17.90;;
66585;SDS011;53444;45.822;16.092;2022-10-31T14:25:26;27.75;;;15.80;;
66585;SDS011;53444;45.822;16.092;2022-10-31T14:27:56;24.47;;;15.17;;
66585;SDS011;53444;45.822;16.092;2022-10-31T14:30:25;27.08;;;16.67;;
66585;SDS011;53444;45.822;16.092;2022-10-31T14:32:54;29.15;;;16.42;;
66585;SDS011;53444;45.822;16.092;2022-10-31T14:35:24;30.23;;;17.10;;
66585;SDS011;53444;45.822;16.092;2022-10-31T14:41:06;28.30;;;17.07;;